Time;durP1;ratioP1;P1;durP2;ratioP2;P2;SDS_P1;SDS_P2;PMS_P1;PMS_P2;Temp;Humidity;BMP_temperature;BMP_pressure;BME280_temperature;BME280_humidity;BME280_pressure;Samples;Min_cycle;Max_cycle;Signal;HPM_P1;HPM_P2
2023/05/28 00:00:21;;;;;;;7.65;3.75;;;17.80;99.90;;;;;;7388448;19;20655;-76
2023/05/28 00:02:47;;;;;;;5.50;3.05;;;17.60;99.90;;;;;;7387996;19;20157;-77
2023/05/28 00:05:13;;;;;;;4.72;2.97;;;17.80;99.90;;;;;;7389855;19;20156;-77
2023/05/28 00:07:41;;;;;;;5.28;3.08;;;17.40;99.90;;;;;;7389103;19;20143;-77
2023/05/28 00:10:07;;;;;;;5.38;2.90;;;17.30;99.90;;;;;;7389935;19;20131;-77
2023/05/28 00:12:33;;;;;;;6.47;3.17;;;17.30;99.90;;;;;;7387574;19;20142;-77
2023/05/28 00:14:59;;;;;;;7.55;3.40;;;17.70;99.90;;;;;;7388769;19;20877;-77
2023/05/28 00:17:25;;;;;;;6.25;3.40;;;17.80;99.90;;;;;;7389350;19;20142;-76
2023/05/28 00:19:51;;;;;;;5.10;3.10;;;18.00;99.90;;;;;;7388506;19;20154;-78
2023/05/28 00:22:17;;;;;;;4.75;3.00;;;18.00;99.90;;;;;;7389045;19;20146;-77
2023/05/28 00:24:43;;;;;;;4.03;3.08;;;17.90;99.90;;;;;;7389021;19;20131;-77
2023/05/28 00:27:08;;;;;;;8.05;3.28;;;18.10;99.90;;;;;;7391381;19;20134;-78
2023/05/28 00:29:34;;;;;;;6.38;3.38;;;17.90;99.90;;;;;;7390384;19;20134;-77
2023/05/28 00:32:00;;;;;;;6.30;3.42;;;18.00;99.90;;;;;;7385172;19;20150;-78
2023/05/28 00:34:26;;;;;;;7.15;3.22;;;17.70;99.90;;;;;;7383407;19;20155;-77
2023/05/28 00:36:53;;;;;;;6.80;3.25;;;17.60;99.90;;;;;;7387396;19;20221;-78
2023/05/28 00:39:20;;;;;;;6.15;3.25;;;17.70;99.90;;;;;;7388712;19;20155;-76
2023/05/28 00:41:46;;;;;;;4.45;2.97;;;17.60;99.90;;;;;;7388019;19;20150;-77
2023/05/28 00:44:12;;;;;;;7.20;3.70;;;17.80;99.90;;;;;;7387802;19;20172;-77
2023/05/28 00:46:44;;;;;;;5.80;3.15;;;17.80;99.90;;;;;;7388819;19;20146;-76
2023/05/28 00:49:10;;;;;;;6.35;3.20;;;17.90;99.90;;;;;;7387265;19;20509;-77
2023/05/28 00:51:36;;;;;;;8.43;3.42;;;17.80;99.90;;;;;;7385132;19;20130;-77
2023/05/28 00:54:03;;;;;;;5.88;3.35;;;17.80;99.90;;;;;;7387725;19;20138;-77
2023/05/28 00:56:31;;;;;;;4.75;3.15;;;17.80;99.90;;;;;;7389269;19;20206;-77
2023/05/28 00:58:59;;;;;;;6.18;3.10;;;17.70;99.90;;;;;;7389477;19;20166;-77
2023/05/28 01:01:29;;;;;;;8.00;3.30;;;17.60;99.90;;;;;;7389208;19;20635;-77
2023/05/28 01:03:55;;;;;;;8.77;3.65;;;17.50;99.90;;;;;;7387954;19;20290;-77
2023/05/28 01:06:22;;;;;;;7.47;3.20;;;17.20;99.90;;;;;;7387641;19;20588;-78
2023/05/28 01:08:49;;;;;;;4.32;2.92;;;17.10;99.90;;;;;;7389565;19;20139;-78
2023/05/28 01:11:18;;;;;;;5.32;3.08;;;16.90;99.90;;;;;;7391616;19;20145;-78
2023/05/28 01:13:45;;;;;;;6.15;3.20;;;17.10;99.90;;;;;;7390810;19;20222;-78
2023/05/28 01:16:11;;;;;;;5.30;3.08;;;17.10;99.90;;;;;;7390161;19;20256;-78
2023/05/28 01:18:39;;;;;;;4.82;3.03;;;17.20;99.90;;;;;;7390682;19;20142;-78
2023/05/28 01:21:06;;;;;;;5.90;3.22;;;16.90;99.90;;;;;;7389849;19;20134;-79
2023/05/28 01:23:43;;;;;;;6.80;3.15;;;17.10;99.90;;;;;;7390844;19;20215;-79
2023/05/28 01:26:12;;;;;;;7.75;3.20;;;16.70;99.90;;;;;;7391874;19;20517;-77
2023/05/28 01:28:41;;;;;;;7.65;3.47;;;16.60;99.90;;;;;;7398620;19;20134;-78
2023/05/28 01:31:09;;;;;;;6.05;3.88;;;16.80;99.90;;;;;;7396474;19;20126;-78
2023/05/28 01:33:36;;;;;;;6.07;3.10;;;16.60;99.90;;;;;;7389746;19;20157;-77
2023/05/28 01:36:05;;;;;;;7.35;3.22;;;16.40;99.90;;;;;;7396381;19;20141;-79
2023/05/28 01:38:33;;;;;;;5.82;3.50;;;16.70;99.90;;;;;;7396724;19;20142;-79
2023/05/28 01:41:00;;;;;;;5.97;3.45;;;16.80;99.90;;;;;;7395089;19;20148;-78
2023/05/28 01:43:29;;;;;;;6.82;3.50;;;16.90;99.90;;;;;;7390862;19;20195;-78
2023/05/28 01:45:55;;;;;;;6.20;3.15;;;17.00;99.90;;;;;;7390370;19;20183;-78
2023/05/28 01:48:22;;;;;;;5.68;3.20;;;17.20;99.90;;;;;;7389459;19;20155;-78
2023/05/28 01:50:47;;;;;;;7.75;3.55;;;17.10;99.90;;;;;;7388908;19;20215;-78
2023/05/28 01:53:13;;;;;;;7.20;3.55;;;17.10;99.90;;;;;;7384460;19;20154;-78
2023/05/28 01:55:39;;;;;;;8.23;3.08;;;17.10;99.90;;;;;;7387840;19;20176;-78
2023/05/28 01:58:05;;;;;;;5.82;3.20;;;17.10;99.90;;;;;;7389697;19;20142;-78
2023/05/28 02:00:33;;;;;;;5.47;3.63;;;17.00;99.90;;;;;;7388432;19;20218;-77
2023/05/28 02:02:59;;;;;;;6.63;3.33;;;16.90;99.90;;;;;;7387483;19;20142;-76
2023/05/28 02:05:24;;;;;;;6.63;3.50;;;17.10;99.90;;;;;;7386316;19;20206;-76
2023/05/28 02:07:50;;;;;;;7.65;3.70;;;16.60;99.90;;;;;;7384883;19;20150;-77
2023/05/28 02:10:16;;;;;;;4.40;3.05;;;16.60;99.90;;;;;;7385029;19;20466;-77
2023/05/28 02:12:42;;;;;;;6.18;3.33;;;16.70;99.90;;;;;;7382418;19;20135;-77
2023/05/28 02:15:08;;;;;;;6.75;3.30;;;16.60;99.90;;;;;;7381023;19;20607;-77
2023/05/28 02:17:35;;;;;;;7.75;3.45;;;16.30;99.90;;;;;;7385441;19;20156;-77
2023/05/28 02:20:01;;;;;;;10.75;3.28;;;16.60;99.90;;;;;;7386769;19;20146;-77
2023/05/28 02:22:26;;;;;;;4.13;2.72;;;16.60;99.90;;;;;;7390111;19;20374;-77
2023/05/28 02:24:52;;;;;;;5.38;2.70;;;16.60;99.90;;;;;;7391378;19;20143;-77
2023/05/28 02:27:18;;;;;;;7.10;3.22;;;16.60;99.90;;;;;;7391250;19;20623;-77
2023/05/28 02:29:43;;;;;;;8.48;3.38;;;16.60;99.90;;;;;;7394366;19;20126;-76
2023/05/28 02:32:09;;;;;;;9.40;3.42;;;16.70;99.90;;;;;;7390283;19;20178;-77
2023/05/28 02:34:35;;;;;;;7.32;3.25;;;16.80;99.90;;;;;;7391483;19;20141;-76
2023/05/28 02:37:01;;;;;;;6.70;3.38;;;16.70;99.90;;;;;;7390035;19;20146;-76
2023/05/28 02:39:26;;;;;;;10.43;3.60;;;16.60;99.90;;;;;;7392399;19;20135;-76
2023/05/28 02:41:52;;;;;;;4.93;3.13;;;16.60;99.90;;;;;;7389207;19;20672;-76
2023/05/28 02:44:18;;;;;;;6.25;3.95;;;16.70;99.90;;;;;;7389985;19;20220;-77
2023/05/28 02:46:44;;;;;;;4.65;2.88;;;16.50;99.90;;;;;;7390785;19;20232;-77
2023/05/28 02:49:10;;;;;;;6.18;3.22;;;16.30;99.90;;;;;;7389811;19;20537;-77
2023/05/28 02:51:36;;;;;;;7.60;4.07;;;16.40;99.90;;;;;;7391280;19;20150;-77
2023/05/28 02:54:01;;;;;;;5.95;3.80;;;16.10;99.90;;;;;;7389821;19;20570;-77
2023/05/28 02:56:27;;;;;;;10.93;3.80;;;15.70;99.90;;;;;;7391929;19;20513;-77
2023/05/28 02:58:53;;;;;;;8.65;4.25;;;15.80;99.90;;;;;;7389664;19;20148;-77
2023/05/28 03:01:19;;;;;;;6.97;3.42;;;16.10;99.90;;;;;;7390713;19;20138;-77
2023/05/28 03:03:44;;;;;;;7.10;3.65;;;16.30;99.90;;;;;;7391051;19;20126;-77
2023/05/28 03:06:10;;;;;;;6.30;3.35;;;16.00;99.90;;;;;;7388429;19;20209;-77
2023/05/28 03:08:36;;;;;;;6.38;3.53;;;15.90;99.90;;;;;;7391131;19;20135;-77
2023/05/28 03:11:02;;;;;;;8.75;3.78;;;15.80;99.90;;;;;;7388977;19;20163;-76
2023/05/28 03:13:28;;;;;;;4.20;3.20;;;15.60;99.90;;;;;;7387659;19;20141;-76
2023/05/28 03:15:53;;;;;;;7.05;3.33;;;15.70;99.90;;;;;;7389772;19;20135;-77
2023/05/28 03:18:19;;;;;;;4.85;3.17;;;15.60;99.90;;;;;;7390383;19;20202;-77
2023/05/28 03:20:45;;;;;;;7.47;3.42;;;15.40;99.90;;;;;;7388911;19;20159;-77
2023/05/28 03:23:11;;;;;;;9.90;3.30;;;15.40;99.90;;;;;;7389024;19;20157;-76
2023/05/28 03:25:36;;;;;;;6.07;3.45;;;15.30;99.90;;;;;;7390034;19;20148;-77
2023/05/28 03:28:02;;;;;;;5.50;3.28;;;15.30;99.90;;;;;;7389797;19;20155;-77
2023/05/28 03:30:28;;;;;;;9.82;3.40;;;15.60;99.90;;;;;;7386977;19;20170;-77
2023/05/28 03:32:54;;;;;;;7.55;3.92;;;15.90;99.90;;;;;;7386361;19;20143;-76
2023/05/28 03:35:19;;;;;;;5.90;4.00;;;15.80;99.90;;;;;;7388530;19;20154;-77
2023/05/28 03:37:45;;;;;;;5.63;3.13;;;15.70;99.90;;;;;;7391801;19;20779;-77
2023/05/28 03:40:11;;;;;;;6.45;3.28;;;15.90;99.90;;;;;;7388773;19;20162;-77
2023/05/28 03:42:38;;;;;;;5.82;3.25;;;16.10;99.90;;;;;;7387401;19;20139;-77
2023/05/28 03:45:05;;;;;;;5.75;3.33;;;15.60;99.90;;;;;;7389885;19;20135;-77
2023/05/28 03:47:32;;;;;;;6.60;4.07;;;15.80;99.90;;;;;;7389859;19;20138;-77
2023/05/28 03:49:58;;;;;;;5.88;3.03;;;15.90;99.90;;;;;;7388809;19;20217;-77
2023/05/28 03:52:25;;;;;;;6.05;3.70;;;16.00;99.90;;;;;;7388477;19;20151;-77
2023/05/28 03:54:51;;;;;;;6.93;3.83;;;16.10;99.90;;;;;;7387377;19;20139;-76
2023/05/28 03:57:16;;;;;;;6.22;3.28;;;16.10;99.90;;;;;;7390111;19;20165;-75
2023/05/28 03:59:42;;;;;;;3.50;2.80;;;16.20;99.90;;;;;;7389335;19;20627;-76
2023/05/28 04:02:08;;;;;;;5.55;3.10;;;16.20;99.90;;;;;;7388059;19;20127;-77
2023/05/28 04:04:34;;;;;;;5.65;3.30;;;16.30;99.90;;;;;;7387665;19;20127;-76
2023/05/28 04:07:00;;;;;;;4.25;3.15;;;16.20;99.90;;;;;;7388902;19;20230;-76
2023/05/28 04:09:27;;;;;;;7.07;3.20;;;16.20;99.90;;;;;;7390663;19;20240;-76
2023/05/28 04:11:52;;;;;;;4.63;3.28;;;16.20;99.90;;;;;;7389009;19;20214;-76
2023/05/28 04:14:19;;;;;;;7.82;3.60;;;16.10;99.90;;;;;;7389248;19;20588;-76
2023/05/28 04:16:44;;;;;;;5.30;3.50;;;16.20;99.90;;;;;;7389807;19;20497;-76
2023/05/28 04:19:10;;;;;;;5.30;3.03;;;16.10;99.90;;;;;;7388541;19;20142;-77
2023/05/28 04:21:36;;;;;;;5.13;3.33;;;16.20;99.90;;;;;;7388839;19;20181;-77
2023/05/28 04:24:03;;;;;;;6.80;3.13;;;16.30;99.90;;;;;;7388602;19;20139;-77
2023/05/28 04:26:29;;;;;;;5.22;3.20;;;16.30;99.90;;;;;;7386526;19;20151;-77
2023/05/28 04:28:55;;;;;;;7.35;3.38;;;16.40;99.90;;;;;;7389156;19;20151;-78
2023/05/28 04:31:21;;;;;;;6.32;2.95;;;16.30;99.90;;;;;;7385470;19;20130;-77
2023/05/28 04:33:47;;;;;;;6.88;3.40;;;16.20;99.90;;;;;;7388426;19;20508;-77
2023/05/28 04:36:16;;;;;;;6.72;3.53;;;16.10;99.90;;;;;;7387048;19;20131;-77
2023/05/28 04:38:42;;;;;;;5.22;3.25;;;16.20;99.90;;;;;;7389818;19;20150;-77
2023/05/28 04:41:13;;;;;;;6.68;3.58;;;16.30;99.90;;;;;;7387241;19;20142;-77
2023/05/28 04:43:41;;;;;;;7.32;3.75;;;16.20;99.90;;;;;;7384734;19;20176;-76
2023/05/28 04:46:08;;;;;;;8.43;4.35;;;16.10;99.90;;;;;;7387812;19;20148;-77
2023/05/28 04:48:37;;;;;;;10.07;4.60;;;16.10;99.90;;;;;;7387615;19;20130;-77
2023/05/28 04:51:05;;;;;;;8.73;4.25;;;16.00;99.90;;;;;;7387091;19;20150;-76
2023/05/28 04:53:31;;;;;;;7.88;3.53;;;16.00;99.90;;;;;;7384727;19;20131;-77
2023/05/28 04:55:57;;;;;;;5.72;3.42;;;16.00;99.90;;;;;;7386880;19;20156;-76
2023/05/28 04:58:22;;;;;;;5.38;3.30;;;16.00;99.90;;;;;;7387607;19;20625;-76
2023/05/28 05:00:48;;;;;;;7.47;3.83;;;16.10;99.90;;;;;;7388733;19;20163;-76
2023/05/28 05:03:14;;;;;;;5.30;3.20;;;16.20;99.90;;;;;;7386815;19;20953;-76
2023/05/28 05:05:41;;;;;;;5.38;3.28;;;16.30;99.90;;;;;;7388011;19;20531;-76
2023/05/28 05:08:08;;;;;;;5.70;3.70;;;16.30;99.90;;;;;;7385057;19;20146;-76
2023/05/28 05:10:34;;;;;;;6.35;4.32;;;16.40;99.90;;;;;;7387134;19;20138;-76
2023/05/28 05:13:00;;;;;;;8.85;3.95;;;16.40;99.90;;;;;;7384075;19;20160;-76
2023/05/28 05:15:27;;;;;;;6.78;3.47;;;16.40;99.90;;;;;;7382239;19;20169;-76
2023/05/28 05:17:52;;;;;;;7.13;3.72;;;16.40;99.90;;;;;;7388509;19;20214;-78
2023/05/28 05:20:18;;;;;;;5.60;3.30;;;16.50;99.90;;;;;;7385654;19;20537;-76
2023/05/28 05:22:44;;;;;;;9.63;3.95;;;16.60;99.90;;;;;;7386148;19;20167;-76
2023/05/28 05:25:10;;;;;;;7.18;3.65;;;16.60;99.90;;;;;;7385806;19;20131;-77
2023/05/28 05:27:36;;;;;;;5.72;3.53;;;16.60;99.90;;;;;;7388378;19;20724;-77
2023/05/28 05:30:03;;;;;;;7.07;3.70;;;16.60;99.90;;;;;;7386391;19;20146;-77
2023/05/28 05:32:29;;;;;;;8.77;3.90;;;16.50;99.90;;;;;;7385266;19;20138;-77
2023/05/28 05:34:55;;;;;;;7.05;4.07;;;16.50;99.90;;;;;;7389933;19;20150;-77
2023/05/28 05:37:21;;;;;;;7.18;3.70;;;16.50;99.90;;;;;;7387768;19;20525;-77
2023/05/28 05:39:47;;;;;;;7.55;4.32;;;16.50;99.90;;;;;;7386934;19;20163;-76
2023/05/28 05:42:13;;;;;;;6.80;4.05;;;16.50;99.90;;;;;;7384382;19;20266;-77
2023/05/28 05:44:38;;;;;;;7.13;3.97;;;16.40;99.90;;;;;;7387801;19;20957;-78
2023/05/28 05:47:04;;;;;;;7.38;4.18;;;16.50;99.90;;;;;;7384769;19;20158;-78
2023/05/28 05:49:30;;;;;;;6.00;3.90;;;16.50;99.90;;;;;;7386352;19;20206;-77
2023/05/28 05:51:56;;;;;;;10.95;3.92;;;16.50;99.90;;;;;;7383513;19;21369;-77
2023/05/28 05:54:22;;;;;;;7.45;4.50;;;16.60;99.90;;;;;;7386087;19;20138;-77
2023/05/28 05:56:48;;;;;;;6.90;4.28;;;16.60;99.90;;;;;;7385562;19;20246;-77
2023/05/28 05:59:14;;;;;;;8.73;4.13;;;16.70;99.90;;;;;;7388214;19;20134;-77
2023/05/28 06:01:40;;;;;;;6.45;3.80;;;16.70;99.90;;;;;;7384115;19;20137;-79
2023/05/28 06:04:06;;;;;;;8.98;4.63;;;16.70;99.90;;;;;;7386178;19;20122;-79
2023/05/28 06:06:32;;;;;;;7.72;4.60;;;16.80;99.90;;;;;;7385514;19;20150;-78
2023/05/28 06:08:57;;;;;;;8.02;3.65;;;16.80;99.90;;;;;;7385616;19;20182;-80
2023/05/28 06:11:23;;;;;;;6.25;3.78;;;16.70;99.90;;;;;;7386491;19;20163;-80
2023/05/28 06:13:51;;;;;;;8.52;4.95;;;17.10;99.90;;;;;;7386693;19;20203;-80
2023/05/28 06:16:17;;;;;;;6.38;3.63;;;18.70;99.90;;;;;;7387397;19;20157;-79
2023/05/28 06:18:43;;;;;;;7.57;3.58;;;20.60;99.90;;;;;;7384895;19;20164;-78
2023/05/28 06:21:10;;;;;;;5.65;3.72;;;21.90;99.90;;;;;;7386669;19;20685;-79
2023/05/28 06:23:36;;;;;;;6.78;3.50;;;22.80;98.20;;;;;;7384644;19;20139;-79
2023/05/28 06:26:03;;;;;;;6.88;3.67;;;23.10;96.90;;;;;;7385370;19;20147;-78
2023/05/28 06:28:29;;;;;;;5.25;3.10;;;23.20;96.10;;;;;;7385693;19;20149;-79
2023/05/28 06:30:54;;;;;;;6.10;3.15;;;23.80;95.20;;;;;;7385811;19;20127;-79
2023/05/28 06:33:21;;;;;;;7.57;3.17;;;24.50;94.00;;;;;;7382927;19;20154;-79
2023/05/28 06:35:47;;;;;;;5.75;3.00;;;24.70;93.00;;;;;;7383831;19;20605;-80
2023/05/28 06:38:13;;;;;;;5.10;2.95;;;24.80;91.80;;;;;;7385937;19;20137;-79
2023/05/28 06:40:39;;;;;;;7.75;3.25;;;24.70;91.60;;;;;;7384552;19;20205;-78
2023/05/28 06:43:04;;;;;;;6.28;3.38;;;24.70;91.50;;;;;;7381060;19;20178;-78
2023/05/28 06:45:32;;;;;;;8.63;3.70;;;24.70;91.20;;;;;;7383994;19;20135;-79
2023/05/28 06:47:59;;;;;;;5.40;3.35;;;25.20;90.50;;;;;;7386320;19;20634;-79
2023/05/28 06:50:25;;;;;;;6.70;3.25;;;25.20;90.00;;;;;;7384425;19;20138;-78
2023/05/28 06:52:51;;;;;;;5.22;3.28;;;25.00;90.10;;;;;;7383027;19;20214;-78
2023/05/28 06:55:16;;;;;;;8.52;4.10;;;24.80;89.70;;;;;;7385309;19;20131;-80
2023/05/28 06:57:44;;;;;;;7.15;3.65;;;24.50;90.00;;;;;;7386095;19;20181;-78
2023/05/28 07:00:14;;;;;;;9.30;3.65;;;24.30;90.10;;;;;;7385718;19;20146;-79
2023/05/28 07:02:40;;;;;;;6.13;2.97;;;24.00;90.40;;;;;;7383262;19;20346;-79
2023/05/28 07:05:07;;;;;;;7.78;3.28;;;23.60;90.70;;;;;;7385628;19;20139;-79
2023/05/28 07:07:32;;;;;;;8.85;2.90;;;23.20;90.60;;;;;;7388778;19;20143;-79
2023/05/28 07:09:58;;;;;;;3.95;2.92;;;23.10;91.10;;;;;;7392665;19;20137;-80
2023/05/28 07:12:24;;;;;;;7.25;3.20;;;23.30;90.90;;;;;;7390349;19;20135;-79
2023/05/28 07:14:50;;;;;;;6.95;3.20;;;23.40;90.60;;;;;;7393355;19;20206;-80
2023/05/28 07:17:15;;;;;;;5.72;2.90;;;23.30;90.60;;;;;;7390315;19;20492;-79
2023/05/28 07:19:42;;;;;;;8.00;3.75;;;23.40;90.80;;;;;;7390962;19;20150;-79
2023/05/28 07:22:07;;;;;;;5.63;2.95;;;23.30;90.60;;;;;;7391405;19;20138;-79
2023/05/28 07:24:33;;;;;;;6.57;3.28;;;23.30;90.80;;;;;;7390184;19;20138;-80
2023/05/28 07:26:59;;;;;;;6.93;2.58;;;23.20;90.50;;;;;;7390921;19;20166;-79
2023/05/28 07:29:26;;;;;;;5.22;3.08;;;23.20;90.70;;;;;;7392255;19;20146;-80
2023/05/28 07:31:52;;;;;;;5.32;2.88;;;23.30;90.90;;;;;;7391740;19;20158;-79
2023/05/28 07:34:18;;;;;;;4.80;2.72;;;23.20;90.90;;;;;;7394017;19;20123;-80
2023/05/28 07:36:44;;;;;;;5.03;3.00;;;23.40;90.80;;;;;;7394375;19;20134;-81
2023/05/28 07:39:10;;;;;;;6.00;3.50;;;23.30;91.00;;;;;;7394674;19;20582;-80
2023/05/28 07:41:36;;;;;;;6.50;3.28;;;23.50;91.10;;;;;;7395288;19;20164;-81
2023/05/28 07:44:02;;;;;;;4.63;2.88;;;23.60;90.60;;;;;;7393038;19;20143;-80
2023/05/28 07:46:28;;;;;;;8.25;3.25;;;23.70;90.80;;;;;;7397276;19;20170;-84
2023/05/28 07:48:53;;;;;;;7.50;3.22;;;23.90;90.10;;;;;;7396066;19;20131;-88
2023/05/28 07:51:20;;;;;;;5.93;2.58;;;23.40;90.40;;;;;;7396497;19;20143;-79
2023/05/28 07:53:46;;;;;;;4.90;3.20;;;23.40;90.80;;;;;;7394985;19;20153;-82
2023/05/28 07:56:12;;;;;;;6.07;2.72;;;23.40;91.00;;;;;;7396137;19;20130;-80
2023/05/28 07:58:41;;;;;;;7.43;3.22;;;23.30;90.80;;;;;;7393328;19;20168;-79
2023/05/28 08:01:08;;;;;;;6.32;3.08;;;23.40;90.70;;;;;;7394458;19;20157;-79
2023/05/28 08:03:34;;;;;;;8.65;3.47;;;23.60;90.60;;;;;;7392310;19;20225;-79
2023/05/28 08:06:01;;;;;;;8.43;3.63;;;23.80;90.60;;;;;;7388188;19;20147;-77
2023/05/28 08:08:30;;;;;;;8.20;3.70;;;23.80;90.30;;;;;;7392565;19;20173;-78
2023/05/28 08:10:55;;;;;;;5.07;3.40;;;23.90;90.20;;;;;;7385172;19;20119;-77
2023/05/28 08:13:25;;;;;;;4.63;2.90;;;24.10;90.20;;;;;;7387064;19;20143;-78
2023/05/28 08:15:51;;;;;;;5.65;2.92;;;24.20;90.40;;;;;;7388809;19;20138;-80
2023/05/28 08:18:17;;;;;;;5.07;2.60;;;24.20;90.20;;;;;;7389027;19;20134;-78
2023/05/28 08:20:43;;;;;;;6.25;2.80;;;24.20;90.10;;;;;;7386417;19;20138;-78
2023/05/28 08:23:09;;;;;;;10.18;3.20;;;23.90;89.20;;;;;;7387168;19;20463;-78
2023/05/28 08:25:35;;;;;;;5.88;3.42;;;24.00;89.50;;;;;;7391083;19;20169;-78
2023/05/28 08:28:01;;;;;;;4.93;3.00;;;24.10;88.90;;;;;;7387793;19;20151;-78
2023/05/28 08:30:26;;;;;;;5.82;3.03;;;24.10;88.90;;;;;;7386894;19;20161;-79
2023/05/28 08:32:52;;;;;;;5.68;3.13;;;24.10;88.80;;;;;;7386816;19;20954;-77
2023/05/28 08:35:18;;;;;;;6.20;2.83;;;24.00;90.00;;;;;;7387779;19;20146;-79
2023/05/28 08:37:43;;;;;;;6.53;3.22;;;24.00;89.70;;;;;;7389257;19;20138;-78
2023/05/28 08:40:10;;;;;;;6.90;3.40;;;24.00;90.40;;;;;;7387719;19;20470;-82
2023/05/28 08:42:36;;;;;;;5.22;2.85;;;24.30;89.20;;;;;;7385523;19;20197;-77
2023/05/28 08:45:03;;;;;;;5.25;3.00;;;24.20;89.60;;;;;;7386709;19;20156;-77
2023/05/28 08:47:32;;;;;;;9.77;3.45;;;24.00;90.00;;;;;;7390730;19;20127;-78
2023/05/28 08:50:04;;;;;;;6.38;3.35;;;23.90;90.10;;;;;;7387028;19;20455;-74
2023/05/28 08:52:32;;;;;;;6.18;3.00;;;23.70;90.40;;;;;;7384943;19;20134;-75
2023/05/28 08:55:01;;;;;;;5.32;2.70;;;23.50;90.70;;;;;;7387362;19;20131;-75
2023/05/28 08:57:29;;;;;;;7.18;3.35;;;23.20;91.00;;;;;;7387655;19;20167;-75
2023/05/28 08:59:55;;;;;;;7.18;3.80;;;23.20;91.40;;;;;;7387200;19;20146;-75
2023/05/28 09:02:25;;;;;;;7.68;3.78;;;23.30;91.60;;;;;;7388553;19;20157;-75
2023/05/28 09:04:51;;;;;;;5.85;3.08;;;23.40;91.40;;;;;;7389229;19;20802;-78
2023/05/28 09:07:17;;;;;;;5.75;2.70;;;23.40;91.30;;;;;;7388109;19;20158;-78
2023/05/28 09:09:43;;;;;;;5.18;3.05;;;23.20;91.70;;;;;;7388231;19;20916;-78
2023/05/28 09:12:13;;;;;;;8.10;3.25;;;23.20;92.00;;;;;;7385382;19;20218;-78
2023/05/28 09:14:41;;;;;;;7.60;2.88;;;23.00;92.00;;;;;;7385186;19;20138;-81
2023/05/28 09:17:10;;;;;;;5.38;2.80;;;22.90;92.40;;;;;;7389916;19;20516;-80
2023/05/28 09:19:36;;;;;;;6.82;2.95;;;23.00;92.60;;;;;;7381414;19;21392;-81
2023/05/28 09:22:03;;;;;;;6.55;3.10;;;23.00;92.30;;;;;;7382345;19;20637;-78
2023/05/28 09:24:30;;;;;;;5.32;3.00;;;23.10;92.50;;;;;;7386192;19;20130;-79
2023/05/28 09:26:57;;;;;;;6.43;3.00;;;23.50;92.30;;;;;;7384733;19;20153;-77
2023/05/28 09:29:24;;;;;;;3.65;2.67;;;23.70;91.70;;;;;;7383711;19;20154;-80
2023/05/28 09:32:02;;;;;;;6.10;2.70;;;24.00;91.50;;;;;;7383214;19;20145;-77
2023/05/28 09:34:31;;;;;;;9.65;3.28;;;24.10;91.20;;;;;;7385216;19;20213;-78
2023/05/28 09:37:01;;;;;;;4.60;2.45;;;24.20;91.40;;;;;;7387076;19;20142;-78
2023/05/28 09:39:27;;;;;;;5.15;2.85;;;24.30;91.30;;;;;;7386813;19;20143;-78
2023/05/28 09:42:03;;;;;;;4.95;2.90;;;24.20;91.20;;;;;;7385621;19;20154;-78
2023/05/28 09:44:33;;;;;;;7.15;3.13;;;24.10;90.90;;;;;;7387214;19;20246;-78
2023/05/28 09:46:59;;;;;;;8.07;2.92;;;23.90;90.70;;;;;;7386381;19;20126;-78
2023/05/28 09:49:29;;;;;;;4.63;2.45;;;23.80;90.50;;;;;;7384817;19;20153;-76
2023/05/28 09:51:58;;;;;;;5.68;2.65;;;23.70;90.20;;;;;;7383030;19;20142;-77
2023/05/28 09:54:29;;;;;;;4.95;2.90;;;23.80;90.10;;;;;;7385058;19;20134;-77
2023/05/28 09:56:58;;;;;;;5.00;2.38;;;24.00;89.80;;;;;;7387785;19;20638;-77
2023/05/28 09:59:26;;;;;;;4.97;3.00;;;24.00;89.80;;;;;;7384468;19;20150;-76
2023/05/28 10:01:59;;;;;;;9.27;3.22;;;23.90;89.70;;;;;;7385193;19;20141;-77
2023/05/28 10:04:33;;;;;;;5.38;2.95;;;23.80;90.20;;;;;;7387082;19;20146;-76
2023/05/28 10:06:59;;;;;;;4.63;2.75;;;23.80;89.50;;;;;;7384061;19;20130;-78
2023/05/28 10:09:28;;;;;;;5.50;2.85;;;23.80;89.40;;;;;;7383663;19;20161;-78
2023/05/28 10:12:10;;;;;;;4.57;2.45;;;23.70;89.00;;;;;;7385757;19;20130;-78
2023/05/28 10:14:37;;;;;;;4.30;2.42;;;23.80;88.60;;;;;;7386739;19;20154;-78
2023/05/28 10:17:03;;;;;;;5.78;2.75;;;23.90;87.30;;;;;;7385264;19;20130;-78
2023/05/28 10:19:30;;;;;;;6.00;2.47;;;23.90;87.00;;;;;;7387682;19;20157;-80
2023/05/28 10:21:56;;;;;;;8.05;3.30;;;24.00;86.70;;;;;;7384470;19;20126;-79
2023/05/28 10:24:25;;;;;;;4.85;2.60;;;24.10;89.40;;;;;;7385872;19;20594;-80
2023/05/28 10:26:53;;;;;;;5.68;3.10;;;24.10;89.60;;;;;;7384510;19;20142;-79
2023/05/28 10:29:20;;;;;;;5.95;2.97;;;24.00;90.20;;;;;;7386046;19;20169;-79
2023/05/28 10:31:58;;;;;;;7.15;3.00;;;23.90;90.50;;;;;;7385779;19;20146;-77
2023/05/28 10:34:32;;;;;;;7.53;2.92;;;23.90;90.30;;;;;;7384828;19;20232;-80
2023/05/28 10:37:03;;;;;;;4.95;2.60;;;23.90;90.10;;;;;;7385894;19;20185;-79
2023/05/28 10:39:43;;;;;;;6.00;2.40;;;24.00;90.00;;;;;;7382952;19;20511;-79
2023/05/28 10:42:13;;;;;;;6.85;2.80;;;24.20;87.80;;;;;;7385284;19;20178;-80
2023/05/28 10:44:53;;;;;;;6.95;2.90;;;24.30;87.10;;;;;;7393060;19;20134;-83
2023/05/28 10:47:30;;;;;;;4.63;3.08;;;24.50;87.10;;;;;;7393429;19;20195;-80
2023/05/28 10:50:09;;;;;;;5.30;3.03;;;24.50;89.80;;;;;;7390592;19;20150;-81
2023/05/28 10:52:38;;;;;;;7.97;3.60;;;24.40;90.60;;;;;;7391270;19;20214;-81
2023/05/28 10:55:09;;;;;;;5.78;3.30;;;24.30;90.60;;;;;;7392344;19;20146;-80
2023/05/28 10:57:47;;;;;;;5.57;2.70;;;24.20;90.60;;;;;;7391863;19;20159;-82
2023/05/28 11:00:24;;;;;;;4.75;3.17;;;24.20;90.50;;;;;;7391621;19;20587;-82
2023/05/28 11:02:54;;;;;;;4.28;2.75;;;24.10;90.90;;;;;;7389199;19;20145;-81
2023/05/28 11:05:26;;;;;;;5.47;2.88;;;24.10;91.30;;;;;;7390420;19;20270;-81
2023/05/28 11:07:55;;;;;;;7.05;3.10;;;24.30;90.60;;;;;;7384995;19;20138;-80
2023/05/28 11:10:21;;;;;;;6.18;2.80;;;24.50;89.00;;;;;;7385720;19;20167;-80
2023/05/28 11:12:50;;;;;;;5.32;2.58;;;24.60;88.50;;;;;;7387095;19;20278;-81
2023/05/28 11:15:16;;;;;;;5.78;2.92;;;24.60;87.80;;;;;;7393596;19;20131;-79
2023/05/28 11:17:43;;;;;;;5.97;3.05;;;24.60;87.90;;;;;;7391555;19;20228;-79
2023/05/28 11:20:27;;;;;;;6.72;3.00;;;24.60;87.70;;;;;;7390025;19;20135;-80
2023/05/28 11:22:53;;;;;;;3.13;2.47;;;24.60;88.10;;;;;;7392198;19;20158;-80
2023/05/28 11:25:22;;;;;;;6.53;2.72;;;24.80;87.80;;;;;;7391242;19;20138;-79
2023/05/28 11:27:48;;;;;;;7.22;3.90;;;24.90;86.50;;;;;;7391497;19;20150;-80
2023/05/28 11:30:16;;;;;;;6.47;3.00;;;24.90;87.50;;;;;;7390424;19;20590;-80
2023/05/28 11:32:43;;;;;;;6.85;3.38;;;24.70;86.30;;;;;;7390131;19;20146;-78
2023/05/28 11:35:13;;;;;;;6.90;3.17;;;24.90;87.20;;;;;;7390476;19;20138;-81
2023/05/28 11:37:41;;;;;;;6.10;3.35;;;25.00;85.60;;;;;;7392272;19;20131;-79
2023/05/28 11:40:12;;;;;;;4.43;2.55;;;25.00;85.70;;;;;;7391100;19;20150;-79
2023/05/28 11:42:40;;;;;;;5.53;3.05;;;25.00;85.40;;;;;;7387701;19;20173;-80
2023/05/28 11:45:07;;;;;;;5.18;2.63;;;25.10;85.10;;;;;;7391060;19;20142;-80
2023/05/28 11:47:34;;;;;;;7.00;3.35;;;25.00;85.10;;;;;;7390442;19;20139;-79
2023/05/28 11:50:13;;;;;;;6.78;2.88;;;24.90;85.30;;;;;;7389610;19;20146;-79
2023/05/28 11:52:38;;;;;;;4.20;3.30;;;24.90;85.10;;;;;;7389632;19;20585;-81
2023/05/28 11:55:05;;;;;;;6.85;3.15;;;24.90;85.60;;;;;;7389643;19;20130;-82
2023/05/28 11:57:37;;;;;;;5.63;2.95;;;25.00;84.20;;;;;;7391157;19;20147;-80
2023/05/28 12:00:16;;;;;;;6.82;2.85;;;25.00;83.30;;;;;;7390239;19;20535;-79
2023/05/28 12:02:53;;;;;;;7.38;3.72;;;24.90;81.50;;;;;;7389413;19;20134;-81
2023/05/28 12:05:20;;;;;;;6.15;3.20;;;25.00;82.10;;;;;;7390199;19;20157;-80
2023/05/28 12:07:48;;;;;;;5.03;3.10;;;25.00;82.30;;;;;;7390720;19;20142;-80
2023/05/28 12:10:18;;;;;;;5.78;3.10;;;25.10;81.60;;;;;;7390025;19;20202;-81
2023/05/28 12:12:46;;;;;;;4.72;3.03;;;25.20;80.90;;;;;;7387014;19;20482;-80
2023/05/28 12:15:13;;;;;;;4.55;2.55;;;25.10;81.00;;;;;;7389623;19;20161;-81
2023/05/28 12:17:43;;;;;;;5.65;3.17;;;25.20;81.00;;;;;;7389448;19;20208;-82
2023/05/28 12:20:15;;;;;;;6.28;2.90;;;25.30;80.20;;;;;;7390320;19;20147;-80
2023/05/28 12:22:44;;;;;;;5.93;3.22;;;25.30;80.80;;;;;;7388934;19;20174;-82
2023/05/28 12:25:10;;;;;;;3.72;2.70;;;25.40;80.70;;;;;;7391107;19;20135;-80
2023/05/28 12:27:37;;;;;;;4.75;2.58;;;25.50;79.90;;;;;;7388787;19;20153;-79
2023/05/28 12:30:03;;;;;;;6.32;3.00;;;25.40;81.00;;;;;;7389434;19;20138;-80
2023/05/28 12:32:29;;;;;;;6.05;3.00;;;25.40;80.50;;;;;;7388785;19;20145;-80
2023/05/28 12:34:58;;;;;;;7.18;3.13;;;25.40;80.50;;;;;;7388940;19;20130;-79
2023/05/28 12:37:24;;;;;;;5.97;3.05;;;25.40;80.10;;;;;;7389744;19;20135;-80
2023/05/28 12:39:53;;;;;;;6.90;3.30;;;25.30;80.50;;;;;;7388319;19;20150;-79
2023/05/28 12:42:19;;;;;;;8.00;3.58;;;25.30;81.00;;;;;;7387339;19;20177;-81
2023/05/28 12:44:45;;;;;;;6.50;3.83;;;25.10;81.60;;;;;;7390304;19;20146;-78